Terminal Aerodrome Forecast
Issued by NWS

Home | Current Version | Previous Version | Text Only | Print | Product List | Glossary On
Versions: 1 2 3 4 5 6 7 8 9 10 11 12 13 14 15 16
000
FTUS46 KPDT 060127 AAA
TAFRDM
TAF AMD
KRDM 060127Z 0601/0624 32011G18KT P6SM SCT050
     FM060400 VRB04KT P6SM SCT200
     FM060900 VRB03KT P6SM SCT050 BKN100
     FM061800 34010G18KT P6SM BKN050 OVC100=

USA.gov is the U.S. government's official web portal to all federal, state and local government web resources and services.